Terminal Aerodrome Forecast
Issued by NWS Tuscon, AZ

Home | Current Version | Previous Version | Text Only | Print | Product List | Glossary On
Versions: 1 2 3 4 5 6 7 8 9 10 11 12 13 14
000
FTUS45 KTWC 312300
TAFTUS
TAF
KTUS 312320Z 0100/0124 15006KT P6SM FEW120 SCT200
     FM011700 16012G18KT P6SM FEW060
     FM012100 22013G20KT P6SM SCT070=

USA.gov is the U.S. government's official web portal to all federal, state and local government web resources and services.